Time;durP1;ratioP1;P1;durP2;ratioP2;P2;SDS_P1;SDS_P2;PMS_P1;PMS_P2;Temp;Humidity;BMP_temperature;BMP_pressure;BME280_temperature;BME280_humidity;BME280_pressure;Samples;Min_cycle;Max_cycle;Signal;HPM_P1;HPM_P2
2024/03/21 00:01:36;;;;;;;29.20;16.75;;;24.10;41.20;;;;;;6164644;28;83236;-55
2024/03/21 00:04:36;;;;;;;25.77;15.60;;;24.00;41.10;;;;;;6161614;28;83461;-55
2024/03/21 00:07:37;;;;;;;26.75;17.23;;;24.00;41.00;;;;;;6160082;28;86303;-56
2024/03/21 00:10:38;;;;;;;29.23;18.50;;;24.00;41.10;;;;;;6158344;28;83304;-53
2024/03/21 00:13:38;;;;;;;24.42;15.23;;;24.10;41.10;;;;;;6161916;28;83827;-55
2024/03/21 00:16:39;;;;;;;24.73;15.60;;;24.10;41.10;;;;;;6149518;28;82900;-53
2024/03/21 00:19:40;;;;;;;27.33;17.60;;;24.10;41.00;;;;;;6153500;28;83355;-58
2024/03/21 00:22:40;;;;;;;26.33;16.30;;;24.10;41.00;;;;;;6149043;28;85947;-59
2024/03/21 00:25:41;;;;;;;29.23;17.90;;;24.10;40.90;;;;;;6148658;28;83109;-59
2024/03/21 00:28:41;;;;;;;28.15;16.98;;;24.10;40.90;;;;;;6149035;28;82816;-60
2024/03/21 00:31:42;;;;;;;25.35;16.48;;;24.10;40.90;;;;;;6148615;28;82991;-59
2024/03/21 00:34:42;;;;;;;27.20;17.27;;;24.10;40.90;;;;;;6156744;28;83054;-59
2024/03/21 00:37:43;;;;;;;28.20;17.15;;;24.10;40.90;;;;;;6148298;28;83468;-54
2024/03/21 00:40:43;;;;;;;26.92;17.67;;;24.10;40.90;;;;;;6148012;28;83481;-51
2024/03/21 00:43:44;;;;;;;29.42;17.23;;;24.10;40.90;;;;;;6147787;28;83570;-50
2024/03/21 00:46:45;;;;;;;27.10;16.75;;;24.00;40.90;;;;;;6148421;28;83648;-54
2024/03/21 00:49:46;;;;;;;29.58;18.90;;;24.10;40.80;;;;;;6147567;28;83236;-50
2024/03/21 00:52:46;;;;;;;28.02;17.00;;;24.10;40.80;;;;;;6148897;28;83326;-51
2024/03/21 00:55:47;;;;;;;29.35;17.55;;;24.10;40.80;;;;;;6148204;28;83473;-55
2024/03/21 00:58:47;;;;;;;29.38;16.95;;;24.10;40.70;;;;;;6148020;28;82956;-54
2024/03/21 01:01:48;;;;;;;26.27;16.88;;;24.10;40.80;;;;;;6148621;28;83404;-51
2024/03/21 01:04:50;;;;;;;28.50;17.98;;;24.10;40.70;;;;;;6155348;28;83145;-56
2024/03/21 01:07:50;;;;;;;28.00;17.05;;;24.00;40.80;;;;;;6153323;28;83941;-54
2024/03/21 01:10:51;;;;;;;29.27;17.90;;;24.00;40.80;;;;;;6165864;28;84021;-55
2024/03/21 01:13:51;;;;;;;27.45;17.30;;;24.00;40.70;;;;;;6160595;28;82929;-57
2024/03/21 01:16:52;;;;;;;26.92;16.40;;;24.00;40.70;;;;;;6164682;28;83448;-58
2024/03/21 01:19:52;;;;;;;28.00;17.25;;;24.00;41.50;;;;;;6151637;28;83229;-58
2024/03/21 01:22:53;;;;;;;26.55;17.45;;;24.00;40.80;;;;;;6151688;28;83011;-55
2024/03/21 01:25:54;;;;;;;30.30;17.48;;;24.00;40.80;;;;;;6151928;28;83792;-56
2024/03/21 01:28:54;;;;;;;29.38;18.05;;;23.90;40.60;;;;;;6151414;28;82895;-57
2024/03/21 01:31:55;;;;;;;29.30;17.95;;;23.90;40.70;;;;;;6152317;28;82994;-58
2024/03/21 01:34:56;;;;;;;29.40;18.23;;;23.90;40.70;;;;;;6151177;28;84980;-58
2024/03/21 01:37:56;;;;;;;30.60;16.70;;;23.90;40.70;;;;;;6151287;28;83396;-58
2024/03/21 01:40:57;;;;;;;29.95;18.00;;;23.90;40.60;;;;;;6150389;28;83512;-56
2024/03/21 01:43:57;;;;;;;27.05;16.70;;;23.90;40.60;;;;;;6163019;28;85401;-57
2024/03/21 01:46:58;;;;;;;28.17;16.83;;;23.90;40.60;;;;;;6151712;28;83102;-58
2024/03/21 01:49:58;;;;;;;26.48;16.95;;;23.90;40.60;;;;;;6162555;28;84520;-54
2024/03/21 01:52:59;;;;;;;26.17;16.33;;;23.90;40.50;;;;;;6164208;28;84001;-50
2024/03/21 01:55:59;;;;;;;28.55;17.77;;;23.90;40.50;;;;;;6150878;28;84918;-54
2024/03/21 01:59:00;;;;;;;29.45;17.08;;;23.90;40.60;;;;;;6151519;28;87234;-53
2024/03/21 02:02:01;;;;;;;25.98;17.60;;;23.90;40.50;;;;;;6167619;28;82916;-55
2024/03/21 02:05:01;;;;;;;28.25;17.73;;;23.90;40.50;;;;;;6156022;28;83353;-53
2024/03/21 02:08:03;;;;;;;25.80;16.00;;;24.00;40.60;;;;;;6175769;28;83560;-56
2024/03/21 02:11:03;;;;;;;28.50;17.38;;;23.90;40.60;;;;;;6160336;28;85759;-56
2024/03/21 02:14:04;;;;;;;30.48;16.95;;;23.90;40.80;;;;;;6176281;28;83164;-56
2024/03/21 02:17:04;;;;;;;28.98;16.58;;;23.90;40.80;;;;;;6152136;28;83244;-52
2024/03/21 02:20:05;;;;;;;23.85;15.80;;;23.90;40.70;;;;;;6153770;28;82813;-55
2024/03/21 02:23:05;;;;;;;28.10;16.70;;;24.00;41.40;;;;;;6172332;28;83086;-55
2024/03/21 02:26:06;;;;;;;26.67;16.58;;;23.90;40.70;;;;;;6150698;28;83394;-58
2024/03/21 02:29:06;;;;;;;24.35;15.90;;;24.00;40.80;;;;;;6163143;28;83442;-54
2024/03/21 02:32:07;;;;;;;26.95;17.52;;;23.90;40.70;;;;;;6153993;28;83307;-54
2024/03/21 02:35:08;;;;;;;25.30;17.15;;;24.00;40.80;;;;;;6159508;28;85399;-52
2024/03/21 02:38:08;;;;;;;25.60;16.20;;;23.90;40.70;;;;;;6153143;28;83402;-54
2024/03/21 02:41:09;;;;;;;25.60;15.85;;;24.00;40.60;;;;;;6149727;28;83608;-52
2024/03/21 02:44:09;;;;;;;25.75;16.80;;;23.90;40.50;;;;;;6158994;28;85107;-54
2024/03/21 02:47:10;;;;;;;25.17;16.20;;;23.90;40.40;;;;;;6153223;28;83051;-57
2024/03/21 02:50:10;;;;;;;26.17;16.75;;;23.90;40.50;;;;;;6136776;28;85053;-55
2024/03/21 02:53:11;;;;;;;24.60;15.98;;;23.90;40.40;;;;;;6137656;28;83143;-54
2024/03/21 02:56:11;;;;;;;24.33;15.88;;;23.90;40.40;;;;;;6162548;28;83038;-55
2024/03/21 02:59:12;;;;;;;23.45;16.02;;;23.90;40.50;;;;;;6151206;28;83087;-55
2024/03/21 03:02:15;;;;;;;23.85;15.25;;;23.90;40.40;;;;;;6150667;28;83583;-53
2024/03/21 03:05:17;;;;;;;28.00;16.13;;;23.90;40.40;;;;;;6161876;28;83096;-54
2024/03/21 03:08:17;;;;;;;26.02;17.00;;;23.90;40.40;;;;;;6160276;28;82993;-52
2024/03/21 03:11:18;;;;;;;22.98;15.45;;;23.90;40.40;;;;;;6153134;28;83259;-48
2024/03/21 03:14:18;;;;;;;25.50;15.60;;;23.80;40.30;;;;;;6151073;28;84242;-51
2024/03/21 03:17:19;;;;;;;22.80;15.43;;;23.90;40.30;;;;;;6148808;28;83444;-53
2024/03/21 03:20:20;;;;;;;27.05;16.90;;;23.90;40.50;;;;;;6150892;28;84509;-55
2024/03/21 03:23:21;;;;;;;24.95;15.55;;;23.90;40.30;;;;;;6151044;28;83867;-57
2024/03/21 03:26:21;;;;;;;24.65;15.23;;;23.90;40.50;;;;;;6150371;28;83459;-52
2024/03/21 03:29:22;;;;;;;15.85;11.15;;;23.80;40.80;;;;;;6149463;28;83639;-53
2024/03/21 03:32:22;;;;;;;20.45;13.30;;;23.90;41.30;;;;;;6159982;28;82918;-57
2024/03/21 03:35:40;;;;;;;16.25;10.50;;;23.80;41.40;;;;;;6148767;28;83649;-56
2024/03/21 03:38:41;;;;;;;20.40;12.70;;;23.80;41.60;;;;;;6150345;28;84065;-55
2024/03/21 03:41:41;;;;;;;21.58;14.45;;;23.80;41.10;;;;;;6149679;28;83870;-52
2024/03/21 03:44:42;;;;;;;25.52;13.57;;;23.80;41.10;;;;;;6149917;28;82952;-55
2024/03/21 03:47:42;;;;;;;20.05;13.20;;;23.80;40.70;;;;;;6150156;28;82683;-53
2024/03/21 03:50:43;;;;;;;19.75;12.98;;;23.80;41.10;;;;;;6154579;28;83504;-51
2024/03/21 03:53:43;;;;;;;21.65;13.52;;;23.80;41.30;;;;;;6152218;28;82887;-52
2024/03/21 03:56:44;;;;;;;21.33;13.48;;;23.80;41.10;;;;;;6149643;28;83373;-51
2024/03/21 03:59:44;;;;;;;19.17;13.55;;;23.80;41.20;;;;;;6148972;28;83149;-53
2024/03/21 04:02:45;;;;;;;19.10;11.77;;;23.80;40.90;;;;;;6153889;28;82872;-56
2024/03/21 04:05:45;;;;;;;15.77;10.30;;;23.80;41.10;;;;;;6163756;28;83254;-55
2024/03/21 04:08:46;;;;;;;18.92;12.00;;;23.80;41.40;;;;;;6149411;28;84215;-53
2024/03/21 04:11:46;;;;;;;14.27;9.18;;;23.90;41.30;;;;;;6158260;28;83194;-56
2024/03/21 04:14:51;;;;;;;20.98;13.27;;;23.80;41.50;;;;;;6157376;28;81721;-56
2024/03/21 04:17:52;;;;;;;19.57;12.60;;;23.80;40.90;;;;;;6144379;28;83487;-54
2024/03/21 04:20:52;;;;;;;18.70;12.40;;;23.80;41.40;;;;;;6148301;28;83115;-57
2024/03/21 04:23:53;;;;;;;19.42;12.38;;;23.90;41.20;;;;;;6148338;28;83493;-50
2024/03/21 04:26:53;;;;;;;19.98;12.60;;;23.90;41.30;;;;;;6148360;28;82941;-54
2024/03/21 04:29:54;;;;;;;23.58;14.48;;;24.00;41.80;;;;;;6148862;28;83231;-55
2024/03/21 04:32:55;;;;;;;21.13;13.50;;;24.00;40.80;;;;;;6157219;28;84663;-53
2024/03/21 04:35:56;;;;;;;21.00;13.35;;;24.00;40.40;;;;;;6149193;28;84383;-55
2024/03/21 04:38:56;;;;;;;20.90;14.00;;;24.00;40.50;;;;;;6147608;28;82759;-58
2024/03/21 04:41:57;;;;;;;25.83;14.73;;;24.00;40.20;;;;;;6148127;28;84297;-57
2024/03/21 04:44:57;;;;;;;22.73;13.70;;;24.00;39.90;;;;;;6146365;28;83071;-61
2024/03/21 04:47:58;;;;;;;22.00;13.57;;;24.10;40.00;;;;;;6147721;28;83850;-59
2024/03/21 04:50:59;;;;;;;19.73;13.65;;;24.10;39.80;;;;;;6148068;28;83503;-58
2024/03/21 04:53:59;;;;;;;22.13;15.00;;;24.20;39.70;;;;;;6148256;28;82937;-64
2024/03/21 04:57:00;;;;;;;25.80;15.15;;;24.20;39.50;;;;;;6161389;28;83694;-62
2024/03/21 05:00:00;;;;;;;23.67;14.75;;;24.20;39.50;;;;;;6149556;28;86019;-59
2024/03/21 05:03:01;;;;;;;21.05;14.73;;;24.30;39.60;;;;;;6151643;28;84195;-64
2024/03/21 05:06:01;;;;;;;22.33;15.00;;;24.30;39.40;;;;;;6147507;28;85823;-65
2024/03/21 05:09:02;;;;;;;21.20;14.43;;;24.30;39.60;;;;;;6147577;28;84132;-64
2024/03/21 05:12:02;;;;;;;24.10;13.75;;;24.30;41.30;;;;;;6148260;28;87423;-64
2024/03/21 05:15:03;;;;;;;20.38;12.45;;;24.40;42.30;;;;;;6147763;28;83037;-65
2024/03/21 05:18:03;;;;;;;19.88;13.38;;;24.40;41.80;;;;;;6147390;28;83188;-69
2024/03/21 05:21:04;;;;;;;20.73;14.10;;;24.40;41.80;;;;;;6148171;28;83200;-65
2024/03/21 05:24:04;;;;;;;22.98;12.98;;;24.40;42.00;;;;;;6158933;28;83242;-65
2024/03/21 05:27:06;;;;;;;21.58;11.75;;;24.40;42.60;;;;;;6154994;28;84857;-63
2024/03/21 05:30:06;;;;;;;23.48;12.35;;;24.50;42.70;;;;;;6160906;28;88737;-67
2024/03/21 05:33:08;;;;;;;32.42;12.93;;;24.50;42.90;;;;;;6146664;28;84035;-64
2024/03/21 05:36:08;;;;;;;21.95;13.25;;;24.50;42.50;;;;;;6152937;28;84444;-65
2024/03/21 05:39:09;;;;;;;19.95;11.85;;;24.50;42.50;;;;;;6147423;28;86124;-64
2024/03/21 05:42:10;;;;;;;21.92;11.77;;;24.50;42.40;;;;;;6143494;28;83363;-66
2024/03/21 05:45:10;;;;;;;16.98;11.32;;;24.50;42.60;;;;;;6153496;28;83071;-64
2024/03/21 05:48:11;;;;;;;20.38;11.80;;;24.50;42.10;;;;;;6152276;28;83916;-53
2024/03/21 05:51:11;;;;;;;24.17;13.15;;;24.50;42.10;;;;;;6144362;28;83291;-55
2024/03/21 05:54:13;;;;;;;21.52;12.43;;;24.50;42.00;;;;;;6146627;28;83020;-55
2024/03/21 05:57:13;;;;;;;22.95;12.05;;;24.40;41.80;;;;;;6149751;28;82986;-54
2024/03/21 06:00:17;;;;;;;19.17;12.23;;;24.40;41.90;;;;;;6143286;28;84209;-54
2024/03/21 06:03:18;;;;;;;16.83;11.73;;;24.40;41.90;;;;;;6164765;28;85516;-56
2024/03/21 06:06:18;;;;;;;19.15;12.10;;;24.40;41.80;;;;;;6154573;28;83550;-57
2024/03/21 06:09:21;;;;;;;18.30;11.75;;;24.40;41.90;;;;;;6153762;28;84296;-56
2024/03/21 06:12:22;;;;;;;17.63;11.70;;;24.40;42.10;;;;;;6152819;28;84303;-54
2024/03/21 06:15:22;;;;;;;22.13;13.73;;;24.30;42.10;;;;;;6151195;28;82919;-56
2024/03/21 06:18:23;;;;;;;21.48;13.55;;;24.30;41.90;;;;;;6152372;28;84132;-56
2024/03/21 06:21:23;;;;;;;23.73;15.32;;;24.20;41.50;;;;;;6151826;28;83871;-54
2024/03/21 06:24:24;;;;;;;24.90;16.25;;;24.20;41.20;;;;;;6165766;28;86186;-57
2024/03/21 06:27:24;;;;;;;25.00;17.02;;;24.20;40.90;;;;;;6151901;28;84255;-56
2024/03/21 06:30:25;;;;;;;29.13;19.20;;;24.20;40.60;;;;;;6150312;28;83310;-58
2024/03/21 06:33:25;;;;;;;30.92;18.52;;;24.10;40.30;;;;;;6162655;28;83326;-57
2024/03/21 06:36:26;;;;;;;33.40;21.00;;;24.10;40.10;;;;;;6176156;28;83715;-58
2024/03/21 06:39:26;;;;;;;31.70;20.58;;;24.10;39.90;;;;;;6151722;28;83793;-57
2024/03/21 06:42:27;;;;;;;29.65;20.27;;;24.00;39.50;;;;;;6152915;28;83187;-58
2024/03/21 06:45:27;;;;;;;32.97;21.75;;;24.00;39.50;;;;;;6159697;28;83339;-67
2024/03/21 06:48:29;;;;;;;33.90;22.63;;;24.00;39.20;;;;;;6151838;28;83527;-64
2024/03/21 06:51:29;;;;;;;38.47;23.23;;;24.00;39.20;;;;;;6152097;28;84529;-72
2024/03/21 06:54:31;;;;;;;36.95;22.52;;;24.00;39.00;;;;;;6152496;28;84330;-70
2024/03/21 06:57:33;;;;;;;36.92;24.63;;;24.00;39.00;;;;;;6161630;28;83770;-68
2024/03/21 07:00:33;;;;;;;37.13;23.88;;;23.90;38.30;;;;;;6150465;28;84256;-67
2024/03/21 07:03:34;;;;;;;37.67;25.25;;;23.90;38.70;;;;;;6147501;28;85226;-68
2024/03/21 07:06:34;;;;;;;34.65;22.48;;;23.80;38.60;;;;;;6160931;28;82995;-66
2024/03/21 07:09:35;;;;;;;33.63;22.50;;;23.80;38.60;;;;;;6147968;28;90286;-67
2024/03/21 07:12:35;;;;;;;35.55;24.10;;;23.80;38.50;;;;;;6147559;28;85799;-64
2024/03/21 07:15:36;;;;;;;35.47;23.95;;;23.80;38.40;;;;;;6148140;28;83345;-65
2024/03/21 07:18:36;;;;;;;35.75;23.05;;;23.80;38.20;;;;;;6149710;28;83550;-65
2024/03/21 07:21:37;;;;;;;35.00;22.55;;;23.80;38.20;;;;;;6148343;28;83554;-57
2024/03/21 07:24:37;;;;;;;34.30;23.15;;;23.70;38.00;;;;;;6147618;28;85028;-57
2024/03/21 07:27:38;;;;;;;34.15;22.85;;;23.70;38.00;;;;;;6148607;28;83388;-53
2024/03/21 07:30:38;;;;;;;31.67;22.38;;;23.70;37.90;;;;;;6152872;28;83350;-53
2024/03/21 07:33:39;;;;;;;35.80;22.92;;;23.70;37.80;;;;;;6157385;28;83801;-57
2024/03/21 07:36:39;;;;;;;38.78;24.50;;;23.70;37.90;;;;;;6149083;28;83262;-56
2024/03/21 07:39:40;;;;;;;40.78;24.40;;;23.70;37.80;;;;;;6150325;28;83594;-64
2024/03/21 07:42:40;;;;;;;37.25;22.00;;;23.60;37.80;;;;;;6149410;28;83239;-63
2024/03/21 07:45:41;;;;;;;32.00;22.38;;;23.60;37.70;;;;;;6149131;28;84103;-63
2024/03/21 07:48:41;;;;;;;35.47;23.45;;;23.60;37.80;;;;;;6154615;28;83151;-63
2024/03/21 07:51:42;;;;;;;36.40;23.48;;;23.60;37.80;;;;;;6155525;28;82897;-63
2024/03/21 07:54:42;;;;;;;31.63;22.30;;;23.60;37.80;;;;;;6161169;28;83637;-62
2024/03/21 07:57:43;;;;;;;39.28;23.45;;;23.60;37.70;;;;;;6157965;28;82818;-55
2024/03/21 08:00:43;;;;;;;34.75;21.88;;;23.60;37.60;;;;;;6149467;28;83334;-55
2024/03/21 08:03:44;;;;;;;35.63;23.33;;;23.60;37.70;;;;;;6148932;28;84019;-57
2024/03/21 08:06:47;;;;;;;33.88;23.00;;;23.60;37.70;;;;;;6161625;28;90531;-55
2024/03/21 08:09:48;;;;;;;36.80;23.02;;;23.60;37.70;;;;;;6149199;28;84289;-55
2024/03/21 08:12:48;;;;;;;34.05;22.02;;;23.60;37.70;;;;;;6150105;28;82924;-56
2024/03/21 08:15:51;;;;;;;34.22;23.15;;;23.60;37.80;;;;;;6147384;28;83403;-55
2024/03/21 08:18:51;;;;;;;34.22;22.80;;;23.60;37.70;;;;;;6148512;28;83228;-55
2024/03/21 08:21:52;;;;;;;34.78;20.48;;;23.60;38.00;;;;;;6154169;28;85473;-54
2024/03/21 08:24:52;;;;;;;37.50;22.13;;;23.60;38.00;;;;;;6152167;28;84518;-56
2024/03/21 08:27:53;;;;;;;31.35;20.58;;;23.60;38.00;;;;;;6155204;28;83916;-60
2024/03/21 08:30:53;;;;;;;34.78;20.55;;;23.60;37.90;;;;;;6166536;28;84665;-60
2024/03/21 08:33:54;;;;;;;42.40;23.63;;;23.70;38.00;;;;;;6156594;28;84400;-59
2024/03/21 08:36:54;;;;;;;30.88;21.08;;;23.70;38.00;;;;;;6153269;28;83235;-56
2024/03/21 08:39:57;;;;;;;38.75;21.35;;;23.70;38.10;;;;;;6146963;28;83887;-59
2024/03/21 08:42:57;;;;;;;35.08;20.98;;;23.70;38.00;;;;;;6157782;28;83742;-62
2024/03/21 08:45:58;;;;;;;40.55;21.42;;;23.80;38.00;;;;;;6153274;28;88375;-60
2024/03/21 08:48:58;;;;;;;36.72;20.67;;;23.80;37.80;;;;;;6151707;28;84009;-59
2024/03/21 08:51:59;;;;;;;28.75;20.10;;;23.90;37.80;;;;;;6152809;28;83121;-59
2024/03/21 08:55:00;;;;;;;38.33;21.13;;;23.90;37.70;;;;;;6149883;28;83482;-60
2024/03/21 08:58:00;;;;;;;37.30;20.42;;;24.00;37.70;;;;;;6153707;28;85314;-62
2024/03/21 09:01:01;;;;;;;33.50;20.33;;;24.00;37.60;;;;;;6149528;28;84085;-63
2024/03/21 09:04:01;;;;;;;34.00;20.38;;;24.00;37.60;;;;;;6155697;28;83356;-61
2024/03/21 09:07:02;;;;;;;33.75;20.58;;;24.00;37.50;;;;;;6158454;28;84900;-62
2024/03/21 09:10:03;;;;;;;33.85;20.35;;;24.10;37.50;;;;;;6147960;28;82991;-61
2024/03/21 09:13:03;;;;;;;33.83;19.77;;;24.10;37.70;;;;;;6161098;28;83093;-59
2024/03/21 09:16:07;;;;;;;34.30;20.05;;;24.10;37.40;;;;;;6148642;28;83468;-55
2024/03/21 09:19:07;;;;;;;36.55;20.50;;;24.10;37.50;;;;;;6148545;28;83787;-60
2024/03/21 09:22:08;;;;;;;32.15;19.55;;;24.10;37.50;;;;;;6156521;28;85093;-53
2024/03/21 09:25:08;;;;;;;32.65;19.58;;;24.10;37.40;;;;;;6160266;28;83123;-54
2024/03/21 09:28:09;;;;;;;30.27;19.52;;;24.20;37.20;;;;;;6165823;28;83022;-51
2024/03/21 09:31:09;;;;;;;29.35;19.77;;;24.20;37.10;;;;;;6164788;28;83251;-49
2024/03/21 09:34:10;;;;;;;30.92;19.33;;;24.20;37.10;;;;;;6164592;28;89185;-52
2024/03/21 09:37:10;;;;;;;34.42;19.05;;;24.20;37.00;;;;;;6164562;28;82887;-50
2024/03/21 09:40:13;;;;;;;28.55;18.45;;;24.20;37.00;;;;;;6165146;28;88232;-50
2024/03/21 09:43:13;;;;;;;27.67;18.15;;;24.20;37.00;;;;;;6160798;28;86831;-49
2024/03/21 09:46:14;;;;;;;31.83;19.20;;;24.30;37.00;;;;;;6151664;28;85683;-54
2024/03/21 09:49:14;;;;;;;30.13;19.27;;;24.30;37.00;;;;;;6152306;28;83071;-63
2024/03/21 09:52:15;;;;;;;33.25;18.88;;;24.30;36.90;;;;;;6153511;28;83364;-61
2024/03/21 09:55:15;;;;;;;27.23;18.42;;;24.30;36.90;;;;;;6158680;28;83708;-59
2024/03/21 09:58:16;;;;;;;30.20;18.45;;;24.30;37.00;;;;;;6151767;28;83653;-62
2024/03/21 10:01:16;;;;;;;27.88;18.17;;;24.30;37.20;;;;;;6153002;28;83034;-61
2024/03/21 10:04:17;;;;;;;28.92;17.60;;;24.40;37.30;;;;;;6156608;28;84447;-61
2024/03/21 10:07:17;;;;;;;25.08;16.80;;;24.40;37.00;;;;;;6161471;28;83308;-64
2024/03/21 10:10:18;;;;;;;28.73;17.10;;;24.40;37.00;;;;;;6153168;28;83449;-60
2024/03/21 10:13:18;;;;;;;25.27;15.70;;;24.50;36.90;;;;;;6164113;28;85750;-59
2024/03/21 10:16:19;;;;;;;24.33;16.17;;;24.50;36.80;;;;;;6151029;28;84541;-62
2024/03/21 10:19:19;;;;;;;24.95;15.48;;;24.60;37.00;;;;;;6154946;28;85944;-59
2024/03/21 10:22:20;;;;;;;26.80;15.88;;;24.50;37.00;;;;;;6151911;28;84212;-61
2024/03/21 10:25:20;;;;;;;26.50;16.13;;;24.60;37.00;;;;;;6152409;28;83720;-63
2024/03/21 10:28:21;;;;;;;25.60;15.05;;;24.60;36.90;;;;;;6157975;28;83231;-62
2024/03/21 10:31:21;;;;;;;25.10;15.88;;;24.60;36.80;;;;;;6155320;28;82974;-61
2024/03/21 10:34:22;;;;;;;21.73;14.35;;;24.60;36.80;;;;;;6153004;28;83808;-62
2024/03/21 10:37:22;;;;;;;26.85;14.52;;;24.60;37.00;;;;;;6171845;28;83340;-61
2024/03/21 10:40:23;;;;;;;22.95;14.15;;;24.60;37.00;;;;;;6169133;28;83910;-61
2024/03/21 10:43:23;;;;;;;21.02;14.20;;;24.60;37.20;;;;;;6157472;28;82796;-66
2024/03/21 10:46:24;;;;;;;23.58;14.80;;;24.60;37.10;;;;;;6151725;28;83180;-65
2024/03/21 10:49:25;;;;;;;23.67;14.48;;;24.60;38.60;;;;;;6147586;28;83054;-63
2024/03/21 10:52:25;;;;;;;24.90;14.77;;;24.60;39.40;;;;;;6152120;28;83096;-65
2024/03/21 10:55:27;;;;;;;23.55;14.70;;;24.70;40.00;;;;;;6151691;28;82930;-66
2024/03/21 10:58:28;;;;;;;25.73;15.35;;;24.60;40.00;;;;;;6151716;28;83960;-63
2024/03/21 11:01:28;;;;;;;22.20;14.32;;;24.60;40.10;;;;;;6148599;28;83699;-58
2024/03/21 11:04:29;;;;;;;24.30;15.18;;;24.60;40.40;;;;;;6151609;28;83416;-58
2024/03/21 11:07:29;;;;;;;22.88;14.90;;;24.60;40.90;;;;;;6159993;28;83124;-59
2024/03/21 11:10:30;;;;;;;21.73;14.43;;;24.60;41.30;;;;;;6150079;28;83608;-58
2024/03/21 11:13:30;;;;;;;22.67;14.48;;;24.60;41.20;;;;;;6168487;28;83598;-58
2024/03/21 11:16:31;;;;;;;23.70;15.25;;;24.60;41.20;;;;;;6156443;28;83169;-58
2024/03/21 11:19:31;;;;;;;26.83;13.95;;;24.60;40.90;;;;;;6153239;28;83801;-66
2024/03/21 11:22:32;;;;;;;26.42;14.70;;;24.60;41.10;;;;;;6151243;28;83317;-64
2024/03/21 11:25:32;;;;;;;26.70;16.10;;;24.60;41.10;;;;;;6151117;28;84032;-65
2024/03/21 11:28:33;;;;;;;26.50;15.55;;;24.60;41.00;;;;;;6150239;28;83405;-65
2024/03/21 11:31:33;;;;;;;28.73;15.77;;;24.60;41.00;;;;;;6155867;28;83094;-62
2024/03/21 11:34:34;;;;;;;27.80;16.45;;;24.60;40.50;;;;;;6157744;28;83536;-66
2024/03/21 11:37:34;;;;;;;28.95;15.52;;;24.50;40.30;;;;;;6151295;28;83928;-50
2024/03/21 11:40:35;;;;;;;28.85;16.38;;;24.50;40.00;;;;;;6149474;28;90475;-49
2024/03/21 11:43:35;;;;;;;32.53;16.00;;;24.50;39.70;;;;;;6153297;28;84791;-53
2024/03/21 11:46:36;;;;;;;26.52;15.70;;;24.50;40.10;;;;;;6157197;28;83621;-52
2024/03/21 11:49:37;;;;;;;29.77;17.17;;;24.50;40.30;;;;;;6161487;28;83926;-50
2024/03/21 11:52:37;;;;;;;23.83;16.05;;;24.50;40.30;;;;;;6150964;28;83924;-50
2024/03/21 11:55:38;;;;;;;27.38;15.35;;;24.60;39.80;;;;;;6160560;28;84199;-51
2024/03/21 11:58:38;;;;;;;23.75;14.75;;;24.60;39.30;;;;;;6150489;28;84062;-52
2024/03/21 12:01:39;;;;;;;29.73;15.85;;;24.50;39.50;;;;;;6147113;28;84025;-53
2024/03/21 12:04:39;;;;;;;25.60;15.45;;;24.50;39.80;;;;;;6156512;28;83751;-49
2024/03/21 12:07:43;;;;;;;24.10;14.32;;;24.50;39.70;;;;;;6171605;28;83409;-54
2024/03/21 12:10:43;;;;;;;27.13;16.33;;;24.60;39.80;;;;;;6166221;28;83422;-50
2024/03/21 12:13:44;;;;;;;27.08;14.65;;;24.50;40.30;;;;;;6149571;28;85758;-52
2024/03/21 12:16:45;;;;;;;29.27;16.77;;;24.60;40.20;;;;;;6146253;28;83000;-65
2024/03/21 12:19:45;;;;;;;24.85;15.43;;;24.60;39.50;;;;;;6150090;28;82937;-65
2024/03/21 12:22:46;;;;;;;29.02;17.15;;;24.60;39.40;;;;;;6152108;28;83214;-60
2024/03/21 12:25:47;;;;;;;26.45;15.38;;;24.60;39.00;;;;;;6149233;28;82912;-63
2024/03/21 12:28:47;;;;;;;22.92;14.98;;;24.60;39.00;;;;;;6149946;28;83981;-61
2024/03/21 12:31:48;;;;;;;22.65;14.30;;;24.60;39.60;;;;;;6160803;28;84389;-63
2024/03/21 12:34:48;;;;;;;26.23;13.90;;;24.60;39.40;;;;;;6149613;28;82933;-58
2024/03/21 12:37:50;;;;;;;21.60;13.95;;;24.60;39.30;;;;;;6149692;28;84054;-57
2024/03/21 12:40:50;;;;;;;28.40;15.10;;;24.60;38.90;;;;;;6150175;28;83368;-59
2024/03/21 12:43:51;;;;;;;21.75;14.32;;;24.60;39.40;;;;;;6149870;28;86594;-58
2024/03/21 12:46:51;;;;;;;29.90;14.75;;;24.60;38.80;;;;;;6153127;28;83176;-59
2024/03/21 12:49:52;;;;;;;24.30;14.32;;;24.60;38.80;;;;;;6150108;28;83592;-53
2024/03/21 12:52:52;;;;;;;23.52;13.73;;;24.60;38.90;;;;;;6153317;28;84144;-64
2024/03/21 12:55:53;;;;;;;24.98;13.10;;;24.60;38.80;;;;;;6150238;28;83653;-63
2024/03/21 12:58:53;;;;;;;23.83;13.23;;;24.70;38.90;;;;;;6150411;28;83302;-63
2024/03/21 13:01:54;;;;;;;24.50;13.52;;;24.70;38.80;;;;;;6158227;28;83262;-64
2024/03/21 13:04:54;;;;;;;28.55;14.02;;;24.70;38.90;;;;;;6163618;28;83720;-62
2024/03/21 13:07:55;;;;;;;27.15;15.02;;;24.70;38.80;;;;;;6158540;28;83257;-62
2024/03/21 13:10:55;;;;;;;23.33;14.60;;;24.70;38.60;;;;;;6167053;28;83142;-54
2024/03/21 13:13:56;;;;;;;22.40;14.85;;;24.60;38.70;;;;;;6170793;28;85473;-54
2024/03/21 13:16:56;;;;;;;27.95;16.52;;;24.60;38.50;;;;;;6172817;28;83347;-54
2024/03/21 13:19:57;;;;;;;24.00;14.95;;;24.70;38.40;;;;;;6156630;28;84280;-54
2024/03/21 13:22:57;;;;;;;24.25;14.77;;;24.60;38.00;;;;;;6153743;28;83379;-59
2024/03/21 13:25:58;;;;;;;22.15;13.77;;;24.60;38.00;;;;;;6164536;28;83508;-56
2024/03/21 13:28:58;;;;;;;22.88;14.07;;;24.60;37.80;;;;;;6164205;28;84837;-53
2024/03/21 13:31:59;;;;;;;23.35;14.43;;;24.60;37.70;;;;;;6150981;28;83269;-55
2024/03/21 13:34:59;;;;;;;25.73;14.60;;;24.50;38.10;;;;;;6151130;28;83246;-54
2024/03/21 13:38:00;;;;;;;28.85;14.85;;;24.50;37.90;;;;;;6149830;28;90425;-58
2024/03/21 13:41:00;;;;;;;24.95;15.05;;;24.50;38.10;;;;;;6151058;28;83394;-54
2024/03/21 13:44:02;;;;;;;20.50;13.50;;;24.50;37.80;;;;;;6150318;28;86561;-53
2024/03/21 13:47:03;;;;;;;23.42;14.05;;;24.50;37.90;;;;;;6150159;28;83177;-61
2024/03/21 13:50:03;;;;;;;23.02;13.45;;;24.50;37.80;;;;;;6149582;28;83071;-60
2024/03/21 13:53:04;;;;;;;22.20;13.57;;;24.50;37.70;;;;;;6150783;28;83316;-60
2024/03/21 13:56:04;;;;;;;23.15;13.48;;;24.40;37.80;;;;;;6153315;28;82901;-60
2024/03/21 13:59:05;;;;;;;25.90;14.23;;;24.50;38.00;;;;;;6165142;28;83156;-60
2024/03/21 14:02:05;;;;;;;24.95;12.85;;;24.40;37.90;;;;;;6160952;28;83214;-61
2024/03/21 14:05:07;;;;;;;28.13;15.65;;;24.40;37.90;;;;;;6165522;28;83610;-60
2024/03/21 14:08:08;;;;;;;23.30;13.27;;;24.40;38.30;;;;;;6155184;28;83492;-61
2024/03/21 14:11:09;;;;;;;24.33;14.88;;;24.40;37.90;;;;;;6150952;28;82906;-62
2024/03/21 14:14:09;;;;;;;34.13;15.70;;;24.40;38.40;;;;;;6151008;28;83390;-62
2024/03/21 14:17:10;;;;;;;36.97;13.25;;;24.40;37.60;;;;;;6152758;28;83189;-60
2024/03/21 14:20:10;;;;;;;26.40;13.80;;;24.40;38.20;;;;;;6164916;28;83123;-60
2024/03/21 14:23:12;;;;;;;25.63;14.57;;;24.40;38.30;;;;;;6160519;28;82717;-56
2024/03/21 14:26:13;;;;;;;27.98;14.80;;;24.40;38.20;;;;;;6159940;28;83006;-54
2024/03/21 14:29:13;;;;;;;35.15;14.60;;;24.30;37.90;;;;;;6150185;28;83369;-54
2024/03/21 14:32:14;;;;;;;26.05;14.38;;;24.30;37.80;;;;;;6163057;28;82915;-55
2024/03/21 14:35:14;;;;;;;25.55;13.85;;;24.30;37.30;;;;;;6163006;28;83375;-54
2024/03/21 14:38:16;;;;;;;24.70;15.55;;;24.40;37.80;;;;;;6150578;28;83847;-56
2024/03/21 14:41:16;;;;;;;35.53;16.13;;;24.30;37.60;;;;;;6151915;28;82926;-58
2024/03/21 14:44:17;;;;;;;30.77;17.38;;;24.30;37.60;;;;;;6150581;28;83157;-56
2024/03/21 14:47:18;;;;;;;27.08;15.50;;;24.30;37.20;;;;;;6149879;28;84629;-57
2024/03/21 14:50:18;;;;;;;31.23;14.95;;;24.30;37.40;;;;;;6157149;28;84286;-54
2024/03/21 14:53:20;;;;;;;31.65;16.90;;;24.20;37.30;;;;;;6156068;28;83535;-57
2024/03/21 14:56:21;;;;;;;31.75;15.82;;;24.30;37.20;;;;;;6148693;28;83173;-57
2024/03/21 14:59:21;;;;;;;27.60;15.90;;;24.20;38.30;;;;;;6150479;28;82973;-57
2024/03/21 15:02:22;;;;;;;27.98;16.00;;;24.20;37.40;;;;;;6148991;28;86123;-62
2024/03/21 15:05:23;;;;;;;27.73;17.02;;;24.20;37.20;;;;;;6160008;28;84284;-61
2024/03/21 15:08:24;;;;;;;29.30;16.42;;;24.20;36.90;;;;;;6157235;28;86295;-62
2024/03/21 15:11:24;;;;;;;28.10;15.88;;;24.10;36.60;;;;;;6157565;28;82907;-63
2024/03/21 15:14:25;;;;;;;27.88;16.13;;;24.20;36.50;;;;;;6156592;28;85859;-63
2024/03/21 15:17:25;;;;;;;29.27;17.55;;;24.10;36.60;;;;;;6161949;28;83066;-63